Hlavní strana
METAR-TAF:

METAR-TAF

Letiště :

Lechfeld, Německo

zeměpisná šířka: 48-11N, zeměpisná délka: 010-52E, výška: 555 m

Aktuální stav počasí

Zpráva byla vytvořena před 43 minutami, v 07:20 UTC
Severoseverovýchodní vítr 4 kt
Teplota 18°C
Vlhkost vzduchu 77%
Tlak 1021 hPa
Viditelnost: 9000 m

METAR: ETSL 260720Z AUTO 03004KT 9000 // ////// 18/14 Q1021 ///

Čas: 10:03 (08:03 UTC)


TAF: chybějící

Stav a předpovědi počasí z více než 4 000 letišť (zprávy METAR a TAF).

Červené a žluté tečky na mapě představují dostupné meteorologické stanice.

Když kurzor umístíte na tečku, zobrazí se název stanice.

Pak kliknutím zobrazíte stav a předpověď počasí.

Chcete-li změnit mapu, kliknutím na zelené tlačítko se znaménkem +mapu přiblížíte, kliknutím na zelené tlačítko se znaménkem – mapu oddálíte a kliknutím na zelené šipky přejdete na sousední mapy.


METAR-TAF: